»·PEaware :: N923E L88-KSBP

N923E :: L88-KSBP

FLIGHT INFORMATION

Flight Status: Arrived
Operator: Privately registered:
United States
More flights under this callsign
Pilot: Louden S. (25159)
Aircraft: PIPER PA-22 TRI PACER/CARIBBEAN
(PA22)
More flights by this aircraft type
Origin: L88 New Cuyama
United States
Destination: KSBP San Luis Co Regl
United States
More flights between these airports :: More routes between these airports
Route: DIRECT
File this flight plan on PilotEdge
Remarks:
Altitude:
(Current/Filed)
6,500ft
Speed:
(Current/Filed)
130kts
Departed: 24-Jun-19 09:09 AM
Arrived: 24-Jun-19 09:52 AM
Distance/Time
Traveled:
50nm/0:42
Distance/Time
To Go:
Arrived

Flight Plot

Page will automatically refresh every two minutes.


Map Options




Map Legend


Flown Route
Filed Route
Departure Airport
Arrival Airport
Navaid (VOR, NDB)
Fix

Horizontal Profiles

Position Reports

Time Latitude Longitude Heading Altitude Ground
Speed
24-Jun-19 09:07 34.982670 -119.797103 291 6570ft 95kts
24-Jun-19 09:08 34.988724 -119.815126 290 6957ft 99kts
24-Jun-19 09:09 34.994310 -119.832895 290 7336ft 98kts
24-Jun-19 09:10 34.999885 -119.850569 290 7687ft 99kts
24-Jun-19 09:11 35.005491 -119.871571 286 7699ft 117kts
24-Jun-19 09:12 35.010854 -119.893712 283 7708ft 118kts
24-Jun-19 09:13 35.014300 -119.915677 275 7728ft 118kts
24-Jun-19 09:14 35.015884 -119.936950 271 7758ft 118kts
24-Jun-19 09:15 35.015884 -119.960442 278 7832ft 115kts
24-Jun-19 09:16 35.021482 -119.983188 287 7845ft 120kts
24-Jun-19 09:17 35.026573 -120.005577 289 7893ft 117kts
24-Jun-19 09:18 35.031909 -120.023686 289 7908ft 117kts
24-Jun-19 09:19 35.037485 -120.047101 290 7951ft 115kts
24-Jun-19 09:20 35.044723 -120.068421 294 8085ft 113kts
24-Jun-19 09:21 35.052437 -120.090158 295 8072ft 118kts
24-Jun-19 09:22 35.060582 -120.112402 294 8080ft 119kts
24-Jun-19 09:23 35.069865 -120.135163 300 8069ft 119kts
24-Jun-19 09:24 35.079893 -120.158155 297 7866ft 125kts
24-Jun-19 09:25 35.089132 -120.180554 294 7714ft 126kts
24-Jun-19 09:26 35.097344 -120.202607 293 7571ft 124kts
24-Jun-19 09:27 35.103271 -120.224028 282 7443ft 125kts
24-Jun-19 09:28 35.108645 -120.248472 287 7313ft 124kts
24-Jun-19 09:29 35.115018 -120.267261 298 7281ft 123kts
24-Jun-19 09:30 35.123514 -120.284735 302 7197ft 123kts
24-Jun-19 09:31 35.132173 -120.306203 292 7164ft 122kts
24-Jun-19 09:32 35.139823 -120.328549 288 7146ft 121kts
24-Jun-19 09:33 35.143112 -120.351894 283 6887ft 114kts
24-Jun-19 09:34 35.148843 -120.372651 289 6443ft 108kts
24-Jun-19 09:35 35.154779 -120.392581 291 5957ft 110kts
24-Jun-19 09:36 35.163448 -120.412225 298 5472ft 109kts
24-Jun-19 09:37 35.170476 -120.431474 294 4993ft 91kts
24-Jun-19 09:38 35.175787 -120.447454 292 4662ft 84kts
24-Jun-19 09:39 35.180920 -120.462892 292 4316ft 84kts
24-Jun-19 09:40 35.185517 -120.478159 286 3926ft 88kts
24-Jun-19 09:41 35.188643 -120.495022 280 3529ft 88kts
24-Jun-19 09:42 35.191129 -120.512719 280 3032ft 91kts
24-Jun-19 09:43 35.194241 -120.530644 285 2537ft 86kts
24-Jun-19 09:44 35.197863 -120.547661 286 2092ft 81kts
24-Jun-19 09:45 35.201995 -120.563268 283 1750ft 73kts
24-Jun-19 09:46 35.204933 -120.581735 281 1551ft 89kts
24-Jun-19 09:47 35.209094 -120.598886 294 1299ft 80kts
24-Jun-19 09:48 35.213307 -120.613077 319 1025ft 72kts
24-Jun-19 09:49 35.223990 -120.620506 328 604ft 81kts
24-Jun-19 09:50 35.231304 -120.630352 303 294ft 58kts
24-Jun-19 09:51 35.235862 -120.638352 306 216ft 29kts
24-Jun-19 09:52 35.237508 -120.639914 10 216ft 0kts
24-Jun-19 09:53 35.237508 -120.639914 10 216ft 0kts
24-Jun-19 09:54 35.238358 -120.639734 335 216ft 11kts
24-Jun-19 09:55 35.238559 -120.639803 8 216ft 0kts
24-Jun-19 09:57 35.238559 -120.639803 8 216ft 0kts

Navigation Log

Ident Type
Flight plan parsing failed, navigation log unavailable